createdAt,value
2019-04-25T00:02:30.889Z,101582.92
2019-04-25T00:05:03.660Z,101582.92
2019-04-25T00:07:35.462Z,101584.00
2019-04-25T00:10:07.418Z,101586.89
2019-04-25T00:12:39.447Z,101581.83
2019-04-25T00:15:11.895Z,101585.77
2019-04-25T00:17:44.729Z,101571.20
2019-04-25T00:20:17.955Z,101583.69
2019-04-25T00:22:54.029Z,101583.98
2019-04-25T00:25:27.466Z,101578.63
2019-04-25T00:27:59.144Z,101586.66
2019-04-25T00:30:32.625Z,101591.39
2019-04-25T00:33:04.281Z,101590.95
2019-04-25T00:35:36.103Z,101590.95
2019-04-25T00:38:07.903Z,101599.77
2019-04-25T00:40:39.666Z,101605.38
2019-04-25T00:43:11.492Z,101601.17
2019-04-25T00:45:44.488Z,101603.14
2019-04-25T00:48:16.789Z,101603.05
2019-04-25T00:50:48.606Z,101607.52
2019-04-25T00:53:21.216Z,101606.06
2019-04-25T00:55:53.864Z,101608.57
2019-04-25T00:58:33.401Z,101603.26
2019-04-25T01:01:23.270Z,101596.55
2019-04-25T01:03:55.097Z,101591.67
2019-04-25T01:06:26.861Z,101601.00
2019-04-25T01:08:58.531Z,101592.27
2019-04-25T01:11:31.407Z,101599.78
2019-04-25T01:14:03.131Z,101606.13
2019-04-25T01:16:36.096Z,101598.06
2019-04-25T01:19:07.899Z,101594.31
2019-04-25T01:21:39.658Z,101595.11
2019-04-25T01:24:12.055Z,101594.09
2019-04-25T01:26:43.998Z,101597.85
2019-04-25T01:29:16.661Z,101591.94
2019-04-25T01:31:48.365Z,101586.78
2019-04-25T01:34:21.823Z,101589.22
2019-04-25T01:36:55.871Z,101587.99
2019-04-25T01:39:45.604Z,101596.90
2019-04-25T01:42:18.917Z,101591.03
2019-04-25T01:44:53.860Z,101595.53
2019-04-25T01:47:26.665Z,101591.02
2019-04-25T01:50:00.267Z,101590.45
2019-04-25T01:52:33.467Z,101590.05
2019-04-25T01:55:07.490Z,101588.39
2019-04-25T01:57:39.210Z,101582.41
2019-04-25T02:00:14.045Z,101587.89
2019-04-25T02:02:47.318Z,101579.39
2019-04-25T02:05:19.105Z,101580.47
2019-04-25T02:07:51.513Z,101576.81
2019-04-25T02:10:23.759Z,101581.75
2019-04-25T02:13:13.559Z,101585.41
2019-04-25T02:15:47.519Z,101589.50
2019-04-25T02:18:20.600Z,101589.09
2019-04-25T02:20:54.245Z,101590.36
2019-04-25T02:23:25.722Z,101594.62
2019-04-25T02:26:09.708Z,101589.39
2019-04-25T02:28:30.939Z,101597.70
2019-04-25T02:31:08.149Z,101597.70
2019-04-25T02:33:36.162Z,101589.74
2019-04-25T02:36:09.732Z,101590.53
2019-04-25T02:38:44.240Z,101595.34
2019-04-25T02:41:15.065Z,101591.84
2019-04-25T02:43:47.357Z,101590.94
2019-04-25T02:46:20.585Z,101593.55
2019-04-25T02:49:28.848Z,101590.66
2019-04-25T02:51:59.072Z,101590.56
2019-04-25T02:54:29.902Z,101593.81
2019-04-25T02:57:02.056Z,101596.09
2019-04-25T02:59:34.576Z,101595.17
2019-04-25T03:02:09.224Z,101594.98
2019-04-25T03:04:41.191Z,101589.94
2019-04-25T03:07:16.803Z,101592.72
2019-04-25T03:09:46.335Z,101597.89
2019-04-25T03:12:29.109Z,101596.91
2019-04-25T03:14:51.481Z,101599.84
2019-04-25T03:17:24.965Z,101600.99
2019-04-25T03:20:11.539Z,101599.33
2019-04-25T03:22:44.432Z,101599.33
2019-04-25T03:25:21.188Z,101597.41
2019-04-25T03:27:54.221Z,101599.77
2019-04-25T03:30:25.931Z,101593.45
2019-04-25T03:32:57.591Z,101588.98
2019-04-25T03:35:29.213Z,101589.61
2019-04-25T03:38:02.396Z,101586.72
2019-04-25T03:40:34.166Z,101589.63
2019-04-25T03:43:07.184Z,101591.36
2019-04-25T03:45:39.009Z,101588.60
2019-04-25T03:48:11.563Z,101595.83
2019-04-25T03:50:44.174Z,101589.72
2019-04-25T03:53:15.998Z,101583.33
2019-04-25T03:55:49.430Z,101586.91
2019-04-25T03:58:23.985Z,101584.55
2019-04-25T04:00:56.619Z,101588.44
2019-04-25T04:03:29.568Z,101582.81
2019-04-25T04:06:01.770Z,101577.81
2019-04-25T04:08:35.731Z,101583.84
2019-04-25T04:11:08.948Z,101587.11
2019-04-25T04:13:43.902Z,101588.81
2019-04-25T04:16:17.371Z,101589.41
2019-04-25T04:18:50.654Z,101586.53
2019-04-25T04:21:43.213Z,101585.41
2019-04-25T04:24:16.817Z,101582.86
2019-04-25T04:27:12.025Z,101580.23
2019-04-25T04:29:44.957Z,101580.86
2019-04-25T04:32:17.363Z,101579.94
2019-04-25T04:34:53.748Z,101576.30
2019-04-25T04:37:25.701Z,101574.39
2019-04-25T04:39:57.588Z,101570.05
2019-04-25T04:42:29.236Z,101573.89
2019-04-25T04:45:01.023Z,101569.90
2019-04-25T04:47:34.820Z,101565.92
2019-04-25T04:50:08.941Z,101563.78
2019-04-25T04:52:43.915Z,101558.35
2019-04-25T04:55:17.363Z,101563.48
2019-04-25T04:57:50.592Z,101555.03
2019-04-25T05:00:25.443Z,101557.72
2019-04-25T05:03:11.188Z,101559.46
2019-04-25T05:05:55.061Z,101561.24
2019-04-25T05:08:31.363Z,101569.25
2019-04-25T05:11:04.250Z,101567.79
2019-04-25T05:13:36.048Z,101566.54
2019-04-25T05:16:07.745Z,101574.11
2019-04-25T05:18:40.128Z,101572.64
2019-04-25T05:21:13.283Z,101573.59
2019-04-25T05:23:51.465Z,101561.47
2019-04-25T05:26:24.917Z,101558.58
2019-04-25T05:28:59.028Z,101559.55
2019-04-25T05:31:32.272Z,101556.27
2019-04-25T05:34:04.262Z,101564.16
2019-04-25T05:36:39.830Z,101563.34
2019-04-25T05:39:11.917Z,101563.77
2019-04-25T05:41:54.097Z,101568.12
2019-04-25T05:44:27.458Z,101565.59
2019-04-25T05:46:59.230Z,101566.15
2019-04-25T05:49:34.228Z,101558.09
2019-04-25T05:52:06.335Z,101566.36
2019-04-25T05:54:37.991Z,101565.22
2019-04-25T05:57:11.070Z,101571.13
2019-04-25T05:59:44.197Z,101562.61
2019-04-25T06:02:15.931Z,101564.03
2019-04-25T06:04:47.674Z,101561.08
2019-04-25T06:07:19.451Z,101559.92
2019-04-25T06:10:09.147Z,101558.44
2019-04-25T06:12:49.835Z,101561.38
2019-04-25T06:15:24.032Z,101552.27
2019-04-25T06:18:14.008Z,101550.28
2019-04-25T06:20:48.901Z,101547.77
2019-04-25T06:23:25.656Z,101548.11
2019-04-25T06:25:57.710Z,101548.48
2019-04-25T06:28:31.042Z,101551.42
2019-04-25T06:31:04.447Z,101552.95
2019-04-25T06:33:37.972Z,101548.72
2019-04-25T06:36:09.700Z,101542.21
2019-04-25T06:38:41.553Z,101537.91
2019-04-25T06:41:13.576Z,101533.77
2019-04-25T06:43:47.771Z,101533.98
2019-04-25T06:46:24.824Z,101534.61
2019-04-25T06:49:13.428Z,101539.32
2019-04-25T06:51:50.832Z,101529.41
2019-04-25T06:54:25.230Z,101537.68
2019-04-25T06:56:57.507Z,101528.91
2019-04-25T06:59:30.071Z,101526.88
2019-04-25T07:02:04.079Z,101527.55
2019-04-25T07:04:35.657Z,101532.06
2019-04-25T07:07:12.150Z,101530.41
2019-04-25T07:09:43.635Z,101530.20
2019-04-25T07:12:15.340Z,101522.81
2019-04-25T07:14:47.116Z,101525.02
2019-04-25T07:17:18.934Z,101518.43
2019-04-25T07:19:50.733Z,101520.98
2019-04-25T07:22:23.924Z,101520.49
2019-04-25T07:25:16.548Z,101520.63
2019-04-25T07:28:03.464Z,101523.78
2019-04-25T07:30:48.425Z,101523.51
2019-04-25T07:33:15.403Z,101521.87
2019-04-25T07:35:47.127Z,101516.13
2019-04-25T07:38:18.855Z,101515.40
2019-04-25T07:40:51.844Z,101510.70
2019-04-25T07:43:23.509Z,101512.89
2019-04-25T07:45:56.775Z,101516.68
2019-04-25T07:48:30.012Z,101515.04
2019-04-25T07:51:03.625Z,101520.78
2019-04-25T07:53:38.200Z,101510.91
2019-04-25T07:56:10.091Z,101513.55
2019-04-25T07:58:49.541Z,101514.03
2019-04-25T08:01:16.014Z,101510.27
2019-04-25T08:03:47.902Z,101512.08
2019-04-25T08:06:22.613Z,101502.73
2019-04-25T08:08:55.217Z,101503.47
2019-04-25T08:11:28.424Z,101503.05
2019-04-25T08:14:03.400Z,101495.73
2019-04-25T08:16:37.172Z,101498.14
2019-04-25T08:19:08.880Z,101490.98
2019-04-25T08:21:41.411Z,101494.37
2019-04-25T08:24:13.965Z,101491.58
2019-04-25T08:26:46.132Z,101489.02
2019-04-25T08:29:18.205Z,101482.64
2019-04-25T08:31:49.980Z,101478.69
2019-04-25T08:34:21.720Z,101482.23
2019-04-25T08:36:55.252Z,101475.49
2019-04-25T08:39:30.308Z,101483.48
2019-04-25T08:42:03.449Z,101488.66
2019-04-25T08:44:36.971Z,101477.27
2019-04-25T08:47:09.735Z,101471.02
2019-04-25T08:49:45.750Z,101466.38
2019-04-25T08:52:18.116Z,101472.01
2019-04-25T08:54:57.497Z,101469.12
2019-04-25T08:57:46.158Z,101467.89
2019-04-25T09:00:29.183Z,101465.22
2019-04-25T09:03:05.982Z,101463.29
2019-04-25T09:05:45.976Z,101454.31
2019-04-25T09:08:19.254Z,101458.84
2019-04-25T09:10:50.989Z,101447.91
2019-04-25T09:13:23.406Z,101448.53
2019-04-25T09:15:56.622Z,101443.84
2019-04-25T09:18:28.368Z,101435.04
2019-04-25T09:21:00.214Z,101426.19
2019-04-25T09:23:33.386Z,101424.63
2019-04-25T09:26:05.714Z,101427.69
2019-04-25T09:28:38.858Z,101427.31
2019-04-25T09:31:13.943Z,101430.33
2019-04-25T09:33:46.795Z,101434.55
2019-04-25T09:36:18.883Z,101425.27
2019-04-25T09:38:53.857Z,101428.62
2019-04-25T09:41:28.033Z,101426.34
2019-04-25T09:44:04.514Z,101425.29
2019-04-25T09:46:37.935Z,101418.19
2019-04-25T09:49:14.046Z,101419.77
2019-04-25T09:51:53.513Z,101409.50
2019-04-25T09:54:33.391Z,101413.84
2019-04-25T09:57:25.971Z,101413.00
2019-04-25T09:59:57.691Z,101408.02
2019-04-25T10:02:33.083Z,101414.73
2019-04-25T10:05:06.802Z,101406.47
2019-04-25T10:07:38.848Z,101410.38
2019-04-25T10:10:10.800Z,101409.02
2019-04-25T10:12:44.120Z,101402.95
2019-04-25T10:15:35.390Z,101406.86
2019-04-25T10:18:07.220Z,101405.38
2019-04-25T10:20:41.680Z,101399.16
2019-04-25T10:23:17.810Z,101409.13
2019-04-25T10:25:51.778Z,101396.86
2019-04-25T10:28:23.885Z,101404.75
2019-04-25T10:30:56.637Z,101398.84
2019-04-25T10:33:28.436Z,101396.11
2019-04-25T10:36:01.316Z,101387.42
2019-04-25T10:38:37.307Z,101392.84
2019-04-25T10:41:12.026Z,101384.86
2019-04-25T10:43:44.051Z,101384.25
2019-04-25T10:46:16.597Z,101380.69
2019-04-25T10:48:48.181Z,101382.49
2019-04-25T10:51:24.038Z,101376.89
2019-04-25T10:53:56.890Z,101374.63
2019-04-25T10:56:28.616Z,101371.48
2019-04-25T10:59:00.833Z,101373.94
2019-04-25T11:01:33.869Z,101365.25
2019-04-25T11:04:09.339Z,101365.37
2019-04-25T11:06:41.890Z,101363.05
2019-04-25T11:09:18.054Z,101356.52
2019-04-25T11:11:50.439Z,101360.28
2019-04-25T11:14:24.204Z,101351.98
2019-04-25T11:16:56.469Z,101353.69
2019-04-25T11:19:28.238Z,101354.11
2019-04-25T11:21:59.894Z,101347.95
2019-04-25T11:24:31.593Z,101351.23
2019-04-25T11:27:04.364Z,101346.98
2019-04-25T11:29:37.736Z,101344.50
2019-04-25T11:32:09.629Z,101342.03
2019-04-25T11:34:46.065Z,101340.16
2019-04-25T11:37:17.159Z,101345.10
2019-04-25T11:40:05.828Z,101339.34
2019-04-25T11:42:37.620Z,101343.68
2019-04-25T11:45:11.229Z,101330.58
2019-04-25T11:47:47.134Z,101337.12
2019-04-25T11:50:19.045Z,101326.48
2019-04-25T11:52:51.279Z,101333.86
2019-04-25T11:55:23.885Z,101330.26
2019-04-25T11:57:55.902Z,101325.75
2019-04-25T12:00:28.669Z,101317.12
2019-04-25T12:03:00.624Z,101315.16
2019-04-25T12:05:34.198Z,101317.17
2019-04-25T12:08:07.133Z,101311.11
2019-04-25T12:10:40.646Z,101307.77
2019-04-25T12:13:15.385Z,101314.72
2019-04-25T12:15:47.886Z,101312.88
2019-04-25T12:18:19.657Z,101310.17
2019-04-25T12:20:54.864Z,101312.34
2019-04-25T12:23:29.026Z,101304.36
2019-04-25T12:26:03.854Z,101298.36
2019-04-25T12:28:35.708Z,101299.74
2019-04-25T12:31:07.335Z,101297.06
2019-04-25T12:33:39.012Z,101296.94
2019-04-25T12:36:10.678Z,101295.27
2019-04-25T12:38:46.051Z,101290.44
2019-04-25T12:41:20.346Z,101290.58
2019-04-25T12:43:54.558Z,101287.17
2019-04-25T12:46:28.406Z,101286.50
2019-04-25T12:48:59.825Z,101286.11
2019-04-25T12:51:31.494Z,101286.53
2019-04-25T12:54:03.929Z,101278.00
2019-04-25T12:56:37.886Z,101281.88
2019-04-25T12:59:11.106Z,101276.22
2019-04-25T13:01:43.779Z,101271.75
2019-04-25T13:04:15.334Z,101270.84
2019-04-25T13:06:48.866Z,101274.00
2019-04-25T13:09:22.213Z,101275.67
2019-04-25T13:11:53.978Z,101267.37
2019-04-25T13:14:25.674Z,101265.83
2019-04-25T13:16:57.337Z,101263.24
2019-04-25T13:19:29.528Z,101260.86
2019-04-25T13:22:01.178Z,101258.81
2019-04-25T13:24:34.362Z,101253.34
2019-04-25T13:27:10.825Z,101250.75
2019-04-25T13:29:50.751Z,101251.60
2019-04-25T13:32:24.099Z,101249.64
2019-04-25T13:34:58.689Z,101242.23
2019-04-25T13:37:34.092Z,101246.66
2019-04-25T13:40:10.047Z,101241.66
2019-04-25T13:42:46.739Z,101243.72
2019-04-25T13:45:19.023Z,101237.20
2019-04-25T13:47:50.701Z,101237.56
2019-04-25T13:50:24.818Z,101243.34
2019-04-25T13:52:57.288Z,101240.49
2019-04-25T13:55:30.074Z,101237.79
2019-04-25T13:58:01.847Z,101238.16
2019-04-25T14:00:34.917Z,101234.06
2019-04-25T14:03:07.170Z,101229.94
2019-04-25T14:05:39.066Z,101231.14
2019-04-25T14:08:11.255Z,101224.09
2019-04-25T14:10:44.337Z,101224.26
2019-04-25T14:13:17.373Z,101220.93
2019-04-25T14:15:58.330Z,101221.77
2019-04-25T14:18:36.761Z,101220.78
2019-04-25T14:21:20.652Z,101224.69
2019-04-25T14:23:54.106Z,101218.25
2019-04-25T14:26:29.118Z,101215.08
2019-04-25T14:29:02.176Z,101220.45
2019-04-25T14:31:45.591Z,101214.75
2019-04-25T14:34:09.015Z,101208.34
2019-04-25T14:36:40.876Z,101205.30
2019-04-25T14:39:13.423Z,101210.03
2019-04-25T14:41:45.070Z,101206.98
2019-04-25T14:44:17.259Z,101204.96
2019-04-25T14:46:49.754Z,101205.41
2019-04-25T14:49:22.823Z,101201.38
2019-04-25T14:51:55.162Z,101198.67
2019-04-25T14:54:44.450Z,101196.47
2019-04-25T14:57:21.855Z,101199.14
2019-04-25T14:59:55.247Z,101188.48
2019-04-25T15:02:30.130Z,101198.09
2019-04-25T15:05:02.625Z,101194.02
2019-04-25T15:07:34.156Z,101181.70
2019-04-25T15:10:17.930Z,101185.68
2019-04-25T15:12:50.020Z,101183.43
2019-04-25T15:15:24.455Z,101179.69
2019-04-25T15:17:56.526Z,101185.70
2019-04-25T15:20:28.315Z,101184.14
2019-04-25T15:23:02.270Z,101187.24
2019-04-25T15:25:37.049Z,101185.33
2019-04-25T15:28:11.584Z,101181.84
2019-04-25T15:30:43.965Z,101181.95
2019-04-25T15:33:18.918Z,101183.39
2019-04-25T15:36:02.270Z,101177.27
2019-04-25T15:38:38.121Z,101174.61
2019-04-25T15:41:20.415Z,101176.49
2019-04-25T15:44:09.792Z,101172.02
2019-04-25T15:46:44.358Z,101173.50
2019-04-25T15:49:16.101Z,101173.14
2019-04-25T15:51:51.776Z,101165.05
2019-04-25T15:54:25.311Z,101168.72
2019-04-25T15:56:58.726Z,101166.67
2019-04-25T15:59:31.096Z,101169.98
2019-04-25T16:02:08.413Z,101163.63
2019-04-25T16:04:40.844Z,101168.17
2019-04-25T16:07:13.116Z,101165.39
2019-04-25T16:09:44.804Z,101172.33
2019-04-25T16:12:18.333Z,101169.58
2019-04-25T16:14:51.432Z,101170.41
2019-04-25T16:17:25.193Z,101170.03
2019-04-25T16:19:57.926Z,101170.27
2019-04-25T16:22:30.274Z,101173.64
2019-04-25T16:25:03.794Z,101178.34
2019-04-25T16:27:39.057Z,101170.17
2019-04-25T16:30:13.101Z,101168.72
2019-04-25T16:32:44.941Z,101168.56
2019-04-25T16:35:21.432Z,101168.19
2019-04-25T16:37:55.077Z,101165.70
2019-04-25T16:40:27.553Z,101175.56
2019-04-25T16:43:04.649Z,101174.08
2019-04-25T16:45:40.170Z,101171.41
2019-04-25T16:48:13.122Z,101170.95
2019-04-25T16:50:46.483Z,101172.05
2019-04-25T16:53:21.063Z,101173.63
2019-04-25T16:55:54.079Z,101172.41
2019-04-25T16:58:27.229Z,101185.52
2019-04-25T17:01:01.878Z,101191.74
2019-04-25T17:03:35.339Z,101204.57
2019-04-25T17:06:13.296Z,101206.31
2019-04-25T17:08:46.955Z,101211.95
2019-04-25T17:11:22.705Z,101214.69
2019-04-25T17:13:56.194Z,101217.66
2019-04-25T17:16:37.461Z,101217.92
2019-04-25T17:19:12.277Z,101214.91
2019-04-25T17:21:45.094Z,101221.36
2019-04-25T17:24:16.842Z,101224.98
2019-04-25T17:26:52.796Z,101227.63
2019-04-25T17:29:24.609Z,101224.49
2019-04-25T17:32:15.928Z,101229.32
2019-04-25T17:34:49.796Z,101225.19
2019-04-25T17:37:29.027Z,101229.32
2019-04-25T17:40:02.460Z,101238.75
2019-04-25T17:42:37.193Z,101240.66
2019-04-25T17:45:13.196Z,101238.96
2019-04-25T17:48:03.574Z,101241.82
2019-04-25T17:50:39.709Z,101243.48
2019-04-25T17:53:13.129Z,101246.61
2019-04-25T17:55:48.468Z,101244.91
2019-04-25T17:58:21.810Z,101247.05
2019-04-25T18:00:55.442Z,101241.82
2019-04-25T18:03:28.751Z,101245.90
2019-04-25T18:06:02.788Z,101246.70
2019-04-25T18:08:37.496Z,101241.62
2019-04-25T18:11:13.692Z,101244.73
2019-04-25T18:13:51.898Z,101245.77
2019-04-25T18:16:34.651Z,101248.52
2019-04-25T18:19:11.020Z,101245.44
2019-04-25T18:21:45.006Z,101246.53
2019-04-25T18:24:36.926Z,101252.52
2019-04-25T18:27:17.263Z,101246.66
2019-04-25T18:29:53.393Z,101250.36
2019-04-25T18:32:27.494Z,101247.33
2019-04-25T18:35:08.458Z,101248.59
2019-04-25T18:37:55.575Z,101252.64
2019-04-25T18:40:48.949Z,101252.52
2019-04-25T18:43:25.333Z,101251.05
2019-04-25T18:46:03.490Z,101246.37
2019-04-25T18:48:36.889Z,101249.61
2019-04-25T18:51:10.710Z,101250.63
2019-04-25T18:54:01.485Z,101252.98
2019-04-25T18:56:37.619Z,101248.17
2019-04-25T18:59:24.946Z,101250.23
2019-04-25T19:02:02.653Z,101253.17
2019-04-25T19:04:39.569Z,101251.30
2019-04-25T19:07:22.616Z,101249.18
2019-04-25T19:09:58.766Z,101247.59
2019-04-25T19:15:31.685Z,101240.91
2019-04-25T19:18:10.039Z,101235.63
2019-04-25T19:20:46.297Z,101235.31
2019-04-25T19:23:20.689Z,101241.03
2019-04-25T19:25:58.754Z,101242.39
2019-04-25T19:28:35.994Z,101239.98
2019-04-25T19:31:11.084Z,101241.94
2019-04-25T19:33:46.023Z,101238.36
2019-04-25T19:36:19.298Z,101244.06
2019-04-25T19:38:52.487Z,101239.92
2019-04-25T19:41:28.998Z,101233.77
2019-04-25T19:44:09.047Z,101235.20
2019-04-25T19:46:47.193Z,101235.75
2019-04-25T19:49:18.951Z,101234.23
2019-04-25T19:51:51.941Z,101229.54
2019-04-25T19:54:23.669Z,101235.45
2019-04-25T19:56:57.968Z,101232.44
2019-04-25T19:59:30.547Z,101229.80
2019-04-25T20:02:08.153Z,101226.95
2019-04-25T20:04:44.732Z,101230.03
2019-04-25T20:07:28.291Z,101230.09
2019-04-25T20:10:05.914Z,101229.84
2019-04-25T20:12:45.393Z,101229.11
2019-04-25T20:15:24.749Z,101227.61
2019-04-25T20:18:01.568Z,101229.31
2019-04-25T20:20:38.409Z,101226.29
2019-04-25T20:23:28.538Z,101230.44
2019-04-25T20:26:04.888Z,101229.11
2019-04-25T20:28:38.559Z,101229.52
2019-04-25T20:31:10.790Z,101228.19
2019-04-25T20:33:45.590Z,101229.52
2019-04-25T20:36:20.918Z,101232.54
2019-04-25T20:38:56.466Z,101227.52
2019-04-25T20:41:29.983Z,101229.98
2019-04-25T20:44:02.696Z,101225.54
2019-04-25T20:46:35.708Z,101226.58
2019-04-25T20:49:09.043Z,101233.09
2019-04-25T20:51:42.421Z,101233.67
2019-04-25T20:54:16.203Z,101235.57
2019-04-25T20:56:49.126Z,101233.73
2019-04-25T20:59:21.492Z,101237.80
2019-04-25T21:01:53.580Z,101234.56
2019-04-25T21:04:39.932Z,101236.72
2019-04-25T21:07:11.756Z,101235.48
2019-04-25T21:09:44.339Z,101240.75
2019-04-25T21:12:17.075Z,101248.86
2019-04-25T21:14:52.730Z,101245.15
2019-04-25T21:17:36.900Z,101247.30
2019-04-25T21:20:13.579Z,101249.53
2019-04-25T21:22:46.306Z,101245.91
2019-04-25T21:25:19.723Z,101244.59
2019-04-25T21:27:52.528Z,101249.41
2019-04-25T21:30:24.540Z,101243.45
2019-04-25T21:32:58.364Z,101249.64
2019-04-25T21:35:30.749Z,101250.17
2019-04-25T21:38:02.536Z,101251.69
2019-04-25T21:40:36.026Z,101249.38
2019-04-25T21:43:12.254Z,101258.34
2019-04-25T21:45:47.511Z,101254.37
2019-04-25T21:48:22.103Z,101253.44
2019-04-25T21:50:56.986Z,101255.98
2019-04-25T21:53:29.121Z,101251.45
2019-04-25T21:56:01.903Z,101253.67
2019-04-25T21:58:33.820Z,101258.91
2019-04-25T22:01:08.304Z,101257.53
2019-04-25T22:03:41.582Z,101253.38
2019-04-25T22:06:13.546Z,101247.86
2019-04-25T22:08:45.281Z,101247.19
2019-04-25T22:11:18.503Z,101254.26
2019-04-25T22:13:50.592Z,101252.38
2019-04-25T22:16:23.771Z,101245.50
2019-04-25T22:18:57.589Z,101248.76
2019-04-25T22:21:37.840Z,101253.39
2019-04-25T22:24:11.174Z,101252.86
2019-04-25T22:26:40.774Z,101251.06
2019-04-25T22:29:12.824Z,101247.02
2019-04-25T22:31:47.217Z,101250.98
2019-04-25T22:34:35.885Z,101249.14
2019-04-25T22:37:08.321Z,101245.03
2019-04-25T22:39:41.885Z,101241.80
2019-04-25T22:42:15.177Z,101239.26
2019-04-25T22:44:47.938Z,101239.20
2019-04-25T22:47:19.693Z,101239.91
2019-04-25T22:49:52.403Z,101235.74
2019-04-25T22:52:24.593Z,101236.70
2019-04-25T22:54:56.427Z,101235.33
2019-04-25T22:57:28.274Z,101237.77
2019-04-25T23:00:01.590Z,101236.95
2019-04-25T23:02:39.412Z,101242.05
2019-04-25T23:05:16.176Z,101241.83
2019-04-25T23:07:50.866Z,101248.36
2019-04-25T23:10:24.901Z,101248.49
2019-04-25T23:12:56.778Z,101242.99
2019-04-25T23:15:28.526Z,101243.84
2019-04-25T23:18:00.550Z,101244.06
2019-04-25T23:20:32.257Z,101242.45
2019-04-25T23:23:04.767Z,101239.50
2019-04-25T23:25:55.522Z,101241.84
2019-04-25T23:28:31.315Z,101245.80
2019-04-25T23:31:05.373Z,101238.48
2019-04-25T23:33:38.067Z,101234.22
2019-04-25T23:36:11.090Z,101236.39
2019-04-25T23:38:43.012Z,101238.10
2019-04-25T23:41:15.693Z,101240.20
2019-04-25T23:43:48.765Z,101239.80
2019-04-25T23:46:20.546Z,101235.62
2019-04-25T23:48:52.198Z,101240.94
2019-04-25T23:51:23.922Z,101239.88
2019-04-25T23:53:55.967Z,101237.41
2019-04-25T23:56:27.713Z,101237.80
2019-04-25T23:58:59.652Z,101231.67
